This is the latest recevied weather packets stored in our database for station/object G4CVN. If no packets are shown the sender has not sent any weather packets the latest 10 day(s).
| Time | Temp. | Humidity | Pressure | Rain* | Wind** | Luminosity | Snow |
|---|---|---|---|---|---|---|---|
| 1777858536 | 11.11° C | 95% | 1016 hPa | 0 mm | - | 0 W/m² | - |
| 1777855516 | 11.11° C | 95% | 1015.9 hPa | 0 mm | - | 0 W/m² | - |
| 1777854916 | 11.11° C | 95% | 1016 hPa | 0 mm | - | 0 W/m² | - |
| 1777850716 | 11.67° C | 94% | 1015.9 hPa | 0 mm | - | 0 W/m² | - |
| 1777841716 | 12.78° C | 89% | 1014.9 hPa | 0 mm | - | 0 W/m² | - |
| 1777840516 | 13.33° C | 88% | 1014.6 hPa | 0 mm | - | 0 W/m² | - |
| 1777839316 | 13.89° C | 87% | 1014.5 hPa | 0 mm | - | 0 W/m² | - |
| 1777838116 | 14.44° C | 86% | 1014.2 hPa | 0 mm | - | 0 W/m² | - |
| 1777833316 | 16.67° C | 78% | 1013.5 hPa | 0 mm | - | 51 W/m² | - |
| 1777827316 | 18.33° C | 71% | 1013.2 hPa | 0 mm | - | 124 W/m² | - |
| 1777825516 | 18.33° C | 72% | 1013.2 hPa | 0 mm | - | 151 W/m² | - |
| 1777822516 | 17.78° C | 71% | 1013.4 hPa | 0 mm | - | 141 W/m² | - |
| 1777821916 | 18.33° C | 69% | 1013.4 hPa | 0 mm | - | 255 W/m² | - |
| 1777818936 | 18.33° C | 72% | 1013.4 hPa | 0 mm | - | 731 W/m² | - |
| 1777817716 | 18.33° C | 72% | 1013.5 hPa | 0 mm | - | 316 W/m² | - |
| 1777815316 | 18.33° C | 73% | 1013.6 hPa | 0 mm | - | 407 W/m² | - |
| 1777814716 | 18.33° C | 74% | 1013.6 hPa | 0 mm | - | 703 W/m² | - |
| 1777814116 | 17.78° C | 74% | 1013.5 hPa | 0 mm | - | 370 W/m² | - |
| 1777812356 | 18.89° C | 71% | 1013.5 hPa | 0 mm | - | 243 W/m² | - |
| 1777806316 | 17.78° C | 75% | 1013.9 hPa | 0 mm | - | 309 W/m² | - |
| 1777803916 | 15.56° C | 84% | 1013.9 hPa | 0 mm | - | 384 W/m² | - |
| 1777800316 | 14.44° C | 89% | 1014.1 hPa | 0 mm | - | 207 W/m² | - |
| 1777797916 | 13.33° C | 93% | 1014 hPa | 0 mm | - | 223 W/m² | - |
| 1777795516 | 12.78° C | 96% | 1014.1 hPa | 0 mm | - | 182 W/m² | - |
| 1777794356 | 12.78° C | 96% | 1014.1 hPa | 0 mm | - | 129 W/m² | - |
* Rain latest hour (hover to see other rain measurements)
** Current wind speed in m/s (hover to see current wind gust speed)